Time;durP1;ratioP1;P1;durP2;ratioP2;P2;SDS_P1;SDS_P2;PMS_P1;PMS_P2;Temp;Humidity;BMP_temperature;BMP_pressure;BME280_temperature;BME280_humidity;BME280_pressure;Samples;Min_cycle;Max_cycle;Signal;HPM_P1;HPM_P2
2021/04/10 07:00:37;;;;;;;8.38;1.67;;;;;;;9.99;62.13;98656.47;5800847;23;21110;-70
2021/04/10 07:03:03;;;;;;;6.25;1.95;;;;;;;9.87;63.18;98656.72;4936436;29;20115;-70
2021/04/10 07:05:29;;;;;;;2.50;1.90;;;;;;;9.91;63.51;98663.53;4936613;29;20053;-70
2021/04/10 07:07:55;;;;;;;3.83;1.58;;;;;;;10.16;61.69;98663.09;4936521;29;20439;-70
2021/04/10 07:10:21;;;;;;;1.90;1.70;;;;;;;10.14;61.66;98664.84;4936468;29;20031;-70
2021/04/10 07:12:47;;;;;;;4.90;1.50;;;;;;;10.03;60.27;98665.91;4936723;29;20504;-69
2021/04/10 07:15:15;;;;;;;2.28;1.30;;;;;;;9.99;62.01;98665.97;4936197;29;20472;-68
2021/04/10 07:17:40;;;;;;;2.72;1.60;;;;;;;9.99;63.33;98666.84;4936250;29;20031;-69
2021/04/10 07:20:26;;;;;;;4.40;1.83;;;;;;;9.92;65.16;98669.56;4935326;29;20024;-69
2021/04/10 07:23:03;;;;;;;2.50;1.60;;;;;;;10.05;63.32;98671.03;4936068;29;20499;-69
2021/04/10 07:25:30;;;;;;;2.20;1.33;;;;;;;9.91;64.86;98679.06;4936499;29;20115;-69
2021/04/10 07:28:23;;;;;;;2.47;1.50;;;;;;;9.85;66.84;98684.31;4934898;29;20391;-69
2021/04/10 07:30:58;;;;;;;3.83;1.52;;;;;;;9.96;66.38;98686.72;4936032;29;20032;-69
2021/04/10 07:33:24;;;;;;;5.47;1.98;;;;;;;9.89;67.17;98683.41;4935827;29;20035;-69
2021/04/10 07:35:50;;;;;;;3.03;1.67;;;;;;;9.96;66.88;98682.44;4935986;29;20144;-73
2021/04/10 07:38:26;;;;;;;10.25;2.72;;;;;;;9.61;72.31;98684.72;4935781;29;20071;-68
2021/04/10 07:40:52;;;;;;;6.03;2.67;;;;;;;9.96;69.99;98687.59;4935721;29;20042;-70
2021/04/10 07:43:35;;;;;;;5.15;3.03;;;;;;;9.56;73.82;98691.69;4935668;29;20114;-71
2021/04/10 07:46:13;;;;;;;11.98;3.80;;;;;;;9.53;74.10;98693.47;4935683;29;20078;-71
2021/04/10 07:48:57;;;;;;;6.88;2.10;;;;;;;9.72;72.12;98695.78;4935596;29;20027;-71
2021/04/10 07:51:22;;;;;;;6.82;2.08;;;;;;;9.65;72.71;98696.75;4935553;29;20059;-72
2021/04/10 07:53:48;;;;;;;4.30;2.40;;;;;;;9.86;71.95;98691.19;4935341;29;20031;-72
2021/04/10 07:56:13;;;;;;;4.90;2.47;;;;;;;10.19;67.60;98694.94;4935566;29;20024;-72
2021/04/10 07:58:38;;;;;;;6.25;2.70;;;;;;;10.12;69.04;98695.09;4935411;29;20026;-73
2021/04/10 08:01:09;;;;;;;6.38;2.58;;;;;;;10.20;68.55;98690.63;4935135;29;20032;-73
2021/04/10 08:03:39;;;;;;;10.32;3.55;;;;;;;10.24;68.77;98692.31;4935587;29;20035;-72
2021/04/10 08:06:07;;;;;;;5.90;3.33;;;;;;;10.40;69.09;98698.94;4935294;29;20533;-73
2021/04/10 08:08:54;;;;;;;7.85;3.50;;;;;;;10.39;69.75;98697.22;4935336;29;20056;-73
2021/04/10 08:11:31;;;;;;;4.05;2.60;;;;;;;10.49;67.36;98693.59;4934946;29;20412;-72
2021/04/10 08:14:03;;;;;;;8.73;2.30;;;;;;;10.47;67.62;98695.34;4933977;29;20027;-73
2021/04/10 08:16:28;;;;;;;6.78;2.35;;;;;;;10.74;67.05;98700.88;4935438;29;20027;-73
2021/04/10 08:19:01;;;;;;;2.55;1.60;;;;;;;10.64;64.53;98696.78;4933998;29;20378;-73
2021/04/10 08:21:29;;;;;;;2.15;1.77;;;;;;;10.68;64.45;98708.75;4935116;29;20024;-72
2021/04/10 08:23:56;;;;;;;6.07;2.17;;;;;;;10.58;64.45;98702.06;4934891;29;20039;-75
2021/04/10 08:26:22;;;;;;;2.33;1.55;;;;;;;10.63;63.72;98710.59;4935230;29;20813;-73
2021/04/10 08:28:48;;;;;;;4.13;1.55;;;;;;;10.61;65.32;98712.38;4935168;29;20487;-75
2021/04/10 08:31:13;;;;;;;4.88;1.90;;;;;;;10.48;65.25;98711.72;4934776;29;20035;-75
2021/04/10 08:33:38;;;;;;;5.82;1.80;;;;;;;10.54;67.68;98725.44;4935027;29;20082;-76
2021/04/10 08:36:07;;;;;;;5.35;3.25;;;;;;;10.46;66.52;98721.28;4934916;29;20381;-75
2021/04/10 08:38:34;;;;;;;4.00;1.55;;;;;;;10.44;67.98;98726.50;4934863;29;20031;-76
2021/04/10 08:41:06;;;;;;;3.70;1.95;;;;;;;10.61;70.27;98722.72;4934826;29;20098;-76
2021/04/10 08:43:33;;;;;;;4.45;1.73;;;;;;;10.60;66.66;98715.84;4933846;29;20027;-77
2021/04/10 08:45:59;;;;;;;5.75;2.25;;;;;;;10.62;69.74;98724.44;4934907;29;20031;-71
2021/04/10 08:48:29;;;;;;;3.53;1.90;;;;;;;10.70;70.40;98727.75;4934749;29;20026;-72
2021/04/10 08:50:58;;;;;;;4.38;1.92;;;;;;;10.70;70.10;98725.16;4934668;29;20501;-69
2021/04/10 08:53:30;;;;;;;3.40;1.92;;;;;;;10.67;71.11;98722.59;4934643;29;20042;-71
2021/04/10 08:55:56;;;;;;;4.45;2.22;;;;;;;10.49;69.82;98724.69;4934726;29;20028;-75
2021/04/10 08:58:27;;;;;;;5.35;2.30;;;;;;;10.47;73.67;98726.44;4934901;29;20038;-71
2021/04/10 09:01:00;;;;;;;4.70;2.40;;;;;;;10.61;70.41;98722.72;4934564;29;20035;-73
2021/04/10 09:03:44;;;;;;;3.45;1.77;;;;;;;10.82;70.84;98722.28;4934629;29;20396;-69
2021/04/10 09:06:14;;;;;;;12.27;1.92;;;;;;;10.96;70.95;98720.28;4934513;29;20520;-69
2021/04/10 09:08:40;;;;;;;3.33;2.00;;;;;;;11.14;68.96;98713.03;4934681;29;20095;-70
2021/04/10 09:11:08;;;;;;;5.93;2.70;;;;;;;11.31;70.89;98716.97;4933261;29;20484;-69
2021/04/10 09:14:03;;;;;;;3.55;2.42;;;;;;;11.54;69.62;98720.75;4934432;29;20034;-69
2021/04/10 09:16:32;;;;;;;5.80;2.35;;;;;;;11.83;67.33;98709.72;4929859;29;20044;-69
2021/04/10 09:19:10;;;;;;;4.00;2.10;;;;;;;11.74;65.97;98720.31;4934800;29;20034;-69
2021/04/10 09:21:41;;;;;;;4.75;2.10;;;;;;;11.80;66.93;98715.00;4934330;29;20028;-69
2021/04/10 09:24:17;;;;;;;7.47;2.40;;;;;;;11.65;67.13;98710.13;4934541;29;20038;-70
2021/04/10 09:27:04;;;;;;;4.18;2.10;;;;;;;11.94;66.78;98712.94;4933247;29;20028;-69
2021/04/10 09:29:43;;;;;;;4.30;2.10;;;;;;;11.80;65.29;98704.59;4934516;29;20028;-68
2021/04/10 09:32:10;;;;;;;6.57;1.95;;;;;;;11.78;64.18;98707.22;4934266;29;20082;-69
2021/04/10 09:34:55;;;;;;;6.95;2.00;;;;;;;11.86;64.10;98709.66;4933211;29;20039;-69
2021/04/10 09:37:20;;;;;;;8.68;2.67;;;;;;;11.64;66.21;98708.44;4934376;29;20035;-68
2021/04/10 09:39:57;;;;;;;7.85;2.00;;;;;;;11.53;64.82;98706.94;4934255;29;20028;-69
2021/04/10 09:42:55;;;;;;;3.47;2.55;;;;;;;11.46;64.35;98715.78;4929018;29;20031;-69
2021/04/10 09:45:23;;;;;;;10.23;2.55;;;;;;;11.61;64.98;98718.91;4940537;29;20439;-69
2021/04/10 09:48:00;;;;;;;3.97;2.05;;;;;;;11.60;63.93;98712.84;4948293;29;20078;-69
2021/04/10 09:50:28;;;;;;;5.30;2.35;;;;;;;11.87;63.94;98711.38;4939347;29;20035;-69
2021/04/10 09:52:53;;;;;;;9.02;3.95;;;;;;;12.03;63.58;98712.69;4937404;29;20027;-69
2021/04/10 09:55:20;;;;;;;4.07;2.20;;;;;;;12.27;61.92;98705.16;4937571;29;20492;-69
2021/04/10 09:58:13;;;;;;;5.30;2.40;;;;;;;12.18;62.75;98705.41;4937492;29;20027;-69
2021/04/10 10:00:38;;;;;;;7.45;2.33;;;;;;;12.11;63.01;98703.88;4944811;28;20050;-69
2021/04/10 10:03:08;;;;;;;10.75;3.22;;;;;;;11.97;62.90;98707.66;4938534;29;20028;-69
2021/04/10 10:05:39;;;;;;;5.10;2.30;;;;;;;11.95;63.23;98704.25;4937445;29;20110;-69
2021/04/10 10:08:10;;;;;;;2.63;1.83;;;;;;;12.02;63.55;98702.34;4937342;29;20031;-69
2021/04/10 10:10:38;;;;;;;9.50;2.60;;;;;;;12.04;62.76;98692.78;4937181;29;20098;-69
2021/04/10 10:13:04;;;;;;;2.53;2.22;;;;;;;12.16;63.12;98696.81;4936889;29;20042;-69
2021/04/10 10:15:30;;;;;;;2.78;2.05;;;;;;;12.22;62.31;98696.66;4939920;29;20028;-69
2021/04/10 10:17:55;;;;;;;4.70;2.00;;;;;;;12.15;62.32;98700.31;4947516;29;20042;-69
2021/04/10 10:20:21;;;;;;;5.43;2.17;;;;;;;12.34;62.03;98697.19;4942280;28;20031;-69
2021/04/10 10:22:47;;;;;;;3.90;2.20;;;;;;;12.30;61.79;98694.72;4935517;29;20032;-69
2021/04/10 10:25:13;;;;;;;4.90;1.92;;;;;;;12.21;61.32;98694.94;4937127;29;20030;-69
2021/04/10 10:27:40;;;;;;;3.38;1.92;;;;;;;12.09;61.81;98691.78;4936867;29;20035;-69
2021/04/10 10:30:26;;;;;;;4.18;1.70;;;;;;;12.20;60.56;98683.72;4937092;29;20039;-70
2021/04/10 10:32:51;;;;;;;4.93;2.00;;;;;;;12.18;60.27;98690.66;4936570;29;20098;-69
2021/04/10 10:35:18;;;;;;;2.95;1.67;;;;;;;12.18;60.91;98684.63;4936678;29;20489;-70
2021/04/10 10:37:48;;;;;;;4.20;1.92;;;;;;;12.20;60.96;98677.66;4941905;29;20400;-70
2021/04/10 10:40:25;;;;;;;;;;;;;;;12.35;61.64;98682.44;4937142;29;20028;-70
2021/04/10 10:43:07;;;;;;;4.00;1.90;;;;;;;12.34;60.63;98678.16;4936611;29;20394;-70
2021/04/10 10:45:49;;;;;;;5.22;1.80;;;;;;;12.32;61.53;98683.38;4928175;29;20032;-70
2021/04/10 10:48:32;;;;;;;2.05;1.45;;;;;;;12.40;60.49;98685.78;4938924;29;20085;-70
2021/04/10 10:51:00;;;;;;;5.32;1.80;;;;;;;12.60;60.58;98688.69;4937046;28;20024;-70
2021/04/10 10:53:34;;;;;;;4.60;2.00;;;;;;;12.63;59.24;98674.75;4920797;29;20043;-69
2021/04/10 10:56:04;;;;;;;3.63;1.88;;;;;;;12.94;58.57;98672.13;4934369;29;20474;-70
2021/04/10 10:58:49;;;;;;;2.35;1.60;;;;;;;12.86;57.15;98674.06;4936102;29;20082;-69
2021/04/10 11:01:18;;;;;;;4.07;2.15;;;;;;;12.51;58.14;98677.69;4936244;29;20128;-69
2021/04/10 11:03:48;;;;;;;3.90;1.65;;;;;;;12.56;58.47;98671.44;4936326;29;20023;-69
2021/04/10 11:06:16;;;;;;;;;;;;;;;12.74;58.00;98661.44;4935360;29;20028;-69
2021/04/10 11:08:43;;;;;;;4.95;1.80;;;;;;;13.19;57.79;98650.56;4936206;29;20009;-69
2021/04/10 11:11:09;;;;;;;5.75;2.35;;;;;;;13.34;59.10;98644.91;4936112;29;20425;-69
2021/04/10 11:13:34;;;;;;;3.42;2.25;;;;;;;13.53;56.80;98647.81;4936078;29;20039;-69
2021/04/10 11:16:02;;;;;;;2.70;2.15;;;;;;;13.91;54.91;98645.69;4942242;29;20077;-70
2021/04/10 11:18:31;;;;;;;4.00;2.47;;;;;;;14.22;54.60;98640.31;4947405;28;20027;-69
2021/04/10 11:21:20;;;;;;;6.57;2.25;;;;;;;14.19;53.21;98645.63;4936539;28;20032;-69
2021/04/10 11:23:58;;;;;;;4.15;1.83;;;;;;;13.64;54.34;98645.72;4923020;29;20027;-69
2021/04/10 11:26:35;;;;;;;5.07;2.10;;;;;;;13.97;56.51;98641.13;4936049;29;20048;-69
2021/04/10 11:29:22;;;;;;;2.58;1.88;;;;;;;14.39;53.32;98637.94;4935878;29;20516;-70
2021/04/10 11:32:11;;;;;;;4.13;2.00;;;;;;;15.30;50.70;98622.38;4935653;29;20035;-69
2021/04/10 11:34:48;;;;;;;5.60;2.40;;;;;;;15.29;49.40;98623.31;4935555;29;20033;-70
2021/04/10 11:37:35;;;;;;;1.90;1.63;;;;;;;14.48;52.15;98622.00;4941784;29;20026;-70
2021/04/10 11:40:02;;;;;;;3.85;1.80;;;;;;;15.53;49.58;98614.47;4935691;29;20488;-70
2021/04/10 11:42:40;;;;;;;6.05;1.90;;;;;;;15.96;48.03;98623.19;4935238;29;20039;-70
2021/04/10 11:45:22;;;;;;;2.53;1.60;;;;;;;15.72;47.60;98613.75;4935553;29;20031;-69
2021/04/10 11:47:47;;;;;;;5.85;2.00;;;;;;;16.41;45.76;98614.25;4935580;29;20111;-70
2021/04/10 11:50:19;;;;;;;5.30;3.08;;;;;;;16.21;47.93;98617.75;4935384;29;20510;-70
2021/04/10 11:52:46;;;;;;;7.10;2.50;;;;;;;15.88;48.54;98614.81;4936575;29;20043;-69
2021/04/10 11:55:14;;;;;;;3.75;2.03;;;;;;;14.90;50.15;98616.09;4944819;28;20024;-70
2021/04/10 11:57:41;;;;;;;3.40;1.83;;;;;;;16.16;47.87;98604.03;4943305;29;20028;-70
2021/04/10 12:00:11;;;;;;;3.78;2.30;;;;;;;15.68;46.17;98603.44;4935483;29;20042;-70
2021/04/10 12:02:40;;;;;;;3.15;1.83;;;;;;;16.28;46.58;98602.63;4935268;29;20111;-70
2021/04/10 12:05:41;;;;;;;5.07;1.90;;;;;;;16.01;47.35;98600.31;4934813;29;20023;-70
2021/04/10 12:08:25;;;;;;;3.67;1.77;;;;;;;15.84;45.96;98592.34;4904075;29;20044;-70
2021/04/10 12:10:56;;;;;;;1.88;1.50;;;;;;;15.79;46.34;98589.06;4935196;29;20501;-74
2021/04/10 12:13:23;;;;;;;3.15;1.88;;;;;;;16.11;46.31;98583.31;4933946;29;20035;-69
2021/04/10 12:15:52;;;;;;;6.32;1.88;;;;;;;16.24;47.01;98574.94;4934192;29;20042;-69
2021/04/10 12:18:19;;;;;;;1.98;1.60;;;;;;;16.19;47.83;98583.81;4935072;29;20027;-69
2021/04/10 12:20:46;;;;;;;2.83;1.70;;;;;;;16.35;45.42;98577.94;4934958;29;20031;-69
2021/04/10 12:23:12;;;;;;;6.97;2.00;;;;;;;16.54;45.98;98572.72;4935141;29;20034;-69
2021/04/10 12:25:38;;;;;;;2.88;1.50;;;;;;;16.15;46.52;98570.97;4934983;29;20032;-70
2021/04/10 12:28:04;;;;;;;4.47;1.52;;;;;;;15.79;45.25;98574.25;4935406;29;20397;-69
2021/04/10 12:30:30;;;;;;;4.70;1.48;;;;;;;15.99;44.82;98575.16;4949639;29;20405;-70
2021/04/10 12:32:55;;;;;;;4.00;1.60;;;;;;;15.65;46.59;98577.44;4935015;29;20028;-74
2021/04/10 12:35:20;;;;;;;3.60;1.67;;;;;;;16.72;44.39;98557.97;4935150;29;20673;-74
2021/04/10 12:37:46;;;;;;;2.28;1.30;;;;;;;17.04;42.13;98554.69;4933710;29;20030;-74
2021/04/10 12:40:12;;;;;;;1.88;1.13;;;;;;;17.81;42.75;98550.94;4933569;29;20504;-74
2021/04/10 12:42:37;;;;;;;4.10;1.40;;;;;;;17.42;42.02;98546.75;4934981;29;20027;-74
2021/04/10 12:45:05;;;;;;;2.33;1.10;;;;;;;16.72;41.50;98553.56;4935083;29;20036;-75
2021/04/10 12:47:30;;;;;;;2.33;1.40;;;;;;;16.59;43.10;98547.22;4934647;29;20038;-70
2021/04/10 12:49:55;;;;;;;2.65;1.25;;;;;;;16.61;42.70;98542.75;4935135;29;20035;-70
2021/04/10 12:52:21;;;;;;;1.02;1.00;;;;;;;16.58;42.14;98542.88;4934580;29;20027;-70
2021/04/10 12:54:48;;;;;;;2.00;1.20;;;;;;;16.82;40.82;98541.75;4934742;29;20028;-70
2021/04/10 12:57:13;;;;;;;2.22;1.05;;;;;;;17.08;40.72;98535.31;4934706;29;20090;-69
2021/04/10 12:59:39;;;;;;;1.67;1.13;;;;;;;17.14;40.78;98532.38;4935191;29;20420;-74
2021/04/10 13:02:05;;;;;;;6.53;4.20;;;;;;;16.76;40.66;98526.34;4934415;29;20027;-73
2021/04/10 13:04:31;;;;;;;5.13;3.53;;;;;;;16.69;40.58;98527.53;4934626;29;20024;-73
2021/04/10 13:06:58;;;;;;;5.43;4.53;;;;;;;16.73;40.60;98523.03;4934601;29;20393;-74
2021/04/10 13:09:24;;;;;;;7.60;1.17;;;;;;;17.01;40.11;98514.72;4934753;29;20023;-74
2021/04/10 13:11:51;;;;;;;1.77;1.17;;;;;;;17.00;39.43;98513.88;4934215;29;20473;-73
2021/04/10 13:14:16;;;;;;;3.80;1.20;;;;;;;17.90;40.08;98500.66;4967941;23;20042;-74
2021/04/10 13:16:42;;;;;;;3.33;1.02;;;;;;;16.89;39.90;98503.94;4956073;28;20020;-74
2021/04/10 13:19:07;;;;;;;5.32;1.02;;;;;;;18.01;38.18;98498.31;4956660;28;20023;-74
2021/04/10 13:21:33;;;;;;;1.42;1.02;;;;;;;18.47;37.78;98495.88;4957458;28;20039;-74
2021/04/10 13:23:58;;;;;;;1.17;0.88;;;;;;;18.37;36.70;98489.41;4957466;28;20034;-74
2021/04/10 13:26:24;;;;;;;3.55;1.20;;;;;;;17.21;39.06;98496.25;4957428;28;20027;-73
2021/04/10 13:28:50;;;;;;;3.90;1.38;;;;;;;16.61;40.60;98496.50;4964858;28;20543;-73
2021/04/10 13:31:17;;;;;;;2.08;1.13;;;;;;;17.10;39.61;98482.84;4964382;28;20041;-73
2021/04/10 13:33:42;;;;;;;3.60;1.10;;;;;;;16.75;40.60;98479.34;4965787;28;20027;-70
2021/04/10 13:36:08;;;;;;;2.15;1.13;;;;;;;17.03;39.71;98471.00;4976529;28;20494;-70
2021/04/10 13:38:34;;;;;;;1.67;1.30;;;;;;;16.72;40.78;98472.47;4976350;28;20031;-70
2021/04/10 13:40:59;;;;;;;3.53;1.92;;;;;;;16.33;40.95;98475.16;4976571;28;20065;-70
2021/04/10 13:43:24;;;;;;;1.58;1.00;;;;;;;16.32;40.10;98468.25;4976332;28;20019;-70
2021/04/10 13:45:49;;;;;;;2.75;1.30;;;;;;;16.37;39.20;98464.50;4976427;28;20147;-70
2021/04/10 13:48:15;;;;;;;4.45;0.95;;;;;;;16.22;40.96;98457.34;4976441;28;20035;-70
2021/04/10 13:50:41;;;;;;;1.27;1.10;;;;;;;15.92;39.81;98459.59;4976363;28;20027;-70
2021/04/10 13:53:06;;;;;;;2.22;1.40;;;;;;;16.57;38.19;98453.09;4976095;28;20431;-70
2021/04/10 13:55:31;;;;;;;2.20;1.20;;;;;;;16.09;40.77;98453.59;4976355;28;20023;-70
2021/04/10 13:57:57;;;;;;;3.38;1.00;;;;;;;16.52;39.55;98439.38;4976212;28;20109;-70
2021/04/10 14:00:22;;;;;;;3.65;1.55;;;;;;;17.17;38.27;98437.97;4976233;28;20033;-70
2021/04/10 14:02:48;;;;;;;3.85;1.05;;;;;;;17.08;36.94;98437.59;4975947;28;20051;-72
2021/04/10 14:05:18;;;;;;;3.72;2.05;;;;;;;17.16;36.87;98431.06;4976100;28;20027;-72
2021/04/10 14:07:44;;;;;;;2.70;1.45;;;;;;;17.00;36.62;98434.50;4976027;28;20081;-72
2021/04/10 14:10:13;;;;;;;2.20;1.20;;;;;;;16.38;38.45;98426.13;4976020;28;20031;-70
2021/04/10 14:12:39;;;;;;;2.42;1.30;;;;;;;16.61;37.76;98422.41;4975878;28;20034;-70
2021/04/10 14:15:06;;;;;;;3.60;1.60;;;;;;;17.03;36.83;98409.03;4975803;28;20460;-70
2021/04/10 14:17:32;;;;;;;2.03;1.25;;;;;;;16.93;38.70;98407.78;4975946;28;20365;-70
2021/04/10 14:19:59;;;;;;;1.48;1.30;;;;;;;17.39;38.66;98394.97;4975884;28;20030;-72
2021/04/10 14:22:24;;;;;;;2.15;1.35;;;;;;;17.37;36.90;98396.84;4975648;28;20610;-72
2021/04/10 14:24:50;;;;;;;1.70;1.20;;;;;;;17.83;35.16;98394.44;4975834;28;20026;-72
2021/04/10 14:27:16;;;;;;;2.15;1.25;;;;;;;17.32;37.33;98393.63;4975720;28;20030;-72
2021/04/10 14:29:42;;;;;;;1.33;1.23;;;;;;;17.39;35.27;98384.50;4975376;28;20042;-72
2021/04/10 14:32:13;;;;;;;3.10;1.00;;;;;;;17.31;35.97;98386.66;4975572;28;20029;-72
2021/04/10 14:34:40;;;;;;;3.67;1.33;;;;;;;17.36;35.95;98382.91;4975385;28;20030;-72
2021/04/10 14:37:06;;;;;;;4.82;1.38;;;;;;;16.93;35.69;98381.63;4975647;28;20023;-72
2021/04/10 14:39:32;;;;;;;3.50;1.35;;;;;;;16.84;35.18;98377.69;4974356;28;20065;-72
2021/04/10 14:41:57;;;;;;;4.68;1.45;;;;;;;17.47;36.48;98361.38;4975247;28;20027;-72
2021/04/10 14:44:23;;;;;;;4.25;1.30;;;;;;;17.93;35.31;98364.19;4975437;28;20033;-72
2021/04/10 14:46:48;;;;;;;5.90;1.30;;;;;;;17.78;36.13;98371.09;4975185;28;20056;-70
2021/04/10 14:49:13;;;;;;;3.33;2.30;;;;;;;17.90;35.36;98359.13;4975373;28;20026;-70
2021/04/10 14:51:39;;;;;;;2.65;1.85;;;;;;;18.24;34.44;98348.44;4975099;28;20081;-70
2021/04/10 14:54:05;;;;;;;1.38;0.88;;;;;;;18.18;34.32;98343.56;4975267;28;20117;-70
2021/04/10 14:56:30;;;;;;;2.35;1.10;;;;;;;17.92;34.30;98346.75;4975202;28;20023;-70
2021/04/10 14:58:56;;;;;;;3.88;1.30;;;;;;;17.66;34.54;98346.38;4975200;28;20033;-70
2021/04/10 15:01:21;;;;;;;6.05;1.42;;;;;;;17.76;35.17;98340.69;4975018;28;20029;-69
2021/04/10 15:03:47;;;;;;;3.08;1.33;;;;;;;17.67;35.97;98336.75;4974941;28;20057;-69
2021/04/10 15:06:14;;;;;;;1.60;1.13;;;;;;;17.73;36.33;98336.44;4974955;28;20367;-69
2021/04/10 15:08:40;;;;;;;1.50;0.90;;;;;;;17.98;34.75;98331.53;4975012;28;20105;-70
2021/04/10 15:11:11;;;;;;;2.97;1.75;;;;;;;17.93;35.46;98330.09;4974849;28;20483;-70
2021/04/10 15:13:50;;;;;;;2.53;1.17;;;;;;;17.14;35.51;98336.00;4974785;28;20065;-70
2021/04/10 15:16:17;;;;;;;2.25;1.40;;;;;;;17.70;35.93;98321.72;4974816;28;20023;-69
2021/04/10 15:18:44;;;;;;;5.45;1.30;;;;;;;17.59;36.06;98326.66;4974776;28;20069;-71
2021/04/10 15:21:09;;;;;;;1.58;1.10;;;;;;;17.70;35.78;98316.47;4974851;28;20073;-71
2021/04/10 15:23:34;;;;;;;4.15;1.05;;;;;;;17.65;35.09;98313.25;4974484;28;20047;-71
2021/04/10 15:26:00;;;;;;;2.10;1.35;;;;;;;18.21;35.50;98311.06;4974735;28;20030;-73
2021/04/10 15:28:25;;;;;;;1.33;1.20;;;;;;;18.00;35.76;98307.03;4974636;28;20033;-72
2021/04/10 15:30:50;;;;;;;1.90;1.30;;;;;;;18.13;34.80;98303.66;4974560;28;20041;-72
2021/04/10 15:33:17;;;;;;;4.03;1.27;;;;;;;18.43;34.81;98294.97;4974254;28;20117;-70
2021/04/10 15:35:42;;;;;;;2.83;1.40;;;;;;;17.76;35.90;98290.88;4974496;28;20039;-70
2021/04/10 15:38:08;;;;;;;1.98;1.40;;;;;;;17.95;36.75;98283.69;4974398;28;20050;-70
2021/04/10 15:40:34;;;;;;;2.67;1.42;;;;;;;17.88;36.25;98287.56;4973740;28;20066;-70
2021/04/10 15:43:00;;;;;;;4.50;1.45;;;;;;;17.57;36.75;98283.16;4974125;28;20023;-71
2021/04/10 15:45:26;;;;;;;2.17;1.23;;;;;;;17.45;36.99;98276.78;4974330;28;20400;-71
2021/04/10 15:47:51;;;;;;;1.73;1.10;;;;;;;17.42;37.85;98275.19;4974082;28;20480;-71
2021/04/10 15:50:17;;;;;;;1.83;1.50;;;;;;;17.69;36.78;98277.22;4974253;28;20102;-71
2021/04/10 15:52:42;;;;;;;2.80;1.33;;;;;;;17.69;37.55;98272.81;4974012;28;20038;-71
2021/04/10 15:55:08;;;;;;;1.55;0.90;;;;;;;17.75;36.05;98266.47;4974118;28;20073;-71
2021/04/10 15:57:33;;;;;;;1.35;1.00;;;;;;;17.51;35.95;98271.22;4974198;28;20023;-71
2021/04/10 15:59:59;;;;;;;2.38;1.30;;;;;;;17.51;36.49;98259.91;4973938;28;20023;-70
2021/04/10 16:02:24;;;;;;;2.35;1.20;;;;;;;17.30;37.14;98248.81;4973863;28;20646;-70
2021/04/10 16:04:50;;;;;;;3.63;1.52;;;;;;;17.46;36.15;98247.06;4973854;28;20189;-70
2021/04/10 16:07:16;;;;;;;2.83;1.23;;;;;;;17.31;36.34;98245.25;4973874;28;20121;-71
2021/04/10 16:09:43;;;;;;;2.88;1.50;;;;;;;17.31;36.34;98238.25;4973822;28;20041;-71
2021/04/10 16:12:08;;;;;;;4.43;2.22;;;;;;;17.30;36.56;98239.16;4973720;28;20054;-71
2021/04/10 16:14:34;;;;;;;2.22;1.25;;;;;;;17.43;36.77;98242.81;4973578;28;20125;-72
2021/04/10 16:17:00;;;;;;;2.20;1.35;;;;;;;17.38;37.58;98241.38;4973659;28;20488;-75
2021/04/10 16:19:25;;;;;;;5.57;2.10;;;;;;;17.29;37.37;98236.63;4973705;28;20109;-70
2021/04/10 16:21:50;;;;;;;1.98;1.58;;;;;;;17.00;37.53;98236.41;4973679;28;20049;-70
2021/04/10 16:24:16;;;;;;;5.20;2.00;;;;;;;16.97;39.79;98233.97;4973590;28;20033;-70
2021/04/10 16:26:41;;;;;;;2.90;1.60;;;;;;;16.76;41.34;98228.06;4973673;28;20026;-73
2021/04/10 16:29:06;;;;;;;3.38;1.55;;;;;;;16.52;41.97;98230.16;4973568;28;20114;-74
2021/04/10 16:31:32;;;;;;;2.67;1.70;;;;;;;16.48;41.45;98233.84;4973429;28;20026;-71
2021/04/10 16:33:57;;;;;;;7.10;1.60;;;;;;;16.45;42.31;98223.56;4973298;28;20082;-70
2021/04/10 16:36:23;;;;;;;3.67;2.40;;;;;;;16.36;43.42;98224.00;4973530;28;20029;-70
2021/04/10 16:38:49;;;;;;;6.05;2.25;;;;;;;16.32;43.24;98225.94;4973658;28;20373;-70
2021/04/10 16:41:15;;;;;;;4.40;2.33;;;;;;;16.22;43.14;98222.09;4973380;28;20409;-70
2021/04/10 16:43:40;;;;;;;6.43;2.10;;;;;;;16.23;44.16;98229.00;4973085;28;20102;-69
2021/04/10 16:46:06;;;;;;;2.25;1.65;;;;;;;16.32;43.69;98231.16;4973291;28;20130;-71
2021/04/10 16:48:31;;;;;;;3.45;1.90;;;;;;;16.33;44.06;98229.38;4973289;28;20077;-72
2021/04/10 16:50:56;;;;;;;3.20;2.10;;;;;;;16.24;44.39;98235.06;4973202;28;20057;-72
2021/04/10 16:53:23;;;;;;;7.13;2.03;;;;;;;16.16;44.56;98223.25;4973052;28;20033;-72
2021/04/10 16:55:51;;;;;;;3.33;1.90;;;;;;;16.07;43.88;98226.31;4973333;28;20027;-72
2021/04/10 16:58:16;;;;;;;5.78;2.45;;;;;;;16.08;44.12;98230.59;4973113;28;20034;-70
2021/04/10 17:00:42;;;;;;;5.90;2.90;;;;;;;16.19;45.21;98224.84;4971978;28;20034;-70
2021/04/10 17:03:08;;;;;;;3.92;1.95;;;;;;;16.27;44.67;98224.47;4972928;28;20101;-70
2021/04/10 17:05:33;;;;;;;6.75;2.22;;;;;;;16.10;44.98;98223.56;4972009;28;20064;-70
2021/04/10 17:07:59;;;;;;;11.65;2.38;;;;;;;15.99;44.81;98231.06;4973068;28;20019;-70
2021/04/10 17:10:24;;;;;;;7.30;2.40;;;;;;;16.03;45.43;98222.16;4973157;28;20035;-70
2021/04/10 17:12:51;;;;;;;16.73;3.45;;;;;;;16.04;45.51;98223.00;4972916;28;20019;-70
2021/04/10 17:15:24;;;;;;;4.78;2.80;;;;;;;16.00;44.87;98219.66;4972975;28;20027;-70
2021/04/10 17:17:50;;;;;;;6.15;3.00;;;;;;;15.97;45.44;98222.44;4973040;28;20027;-70
2021/04/10 17:20:16;;;;;;;16.83;3.60;;;;;;;15.87;45.79;98226.44;4973036;28;20105;-70
2021/04/10 17:22:42;;;;;;;16.75;4.22;;;;;;;15.74;46.25;98220.09;4966922;28;20060;-71
2021/04/10 17:25:12;;;;;;;45.42;6.07;;;;;;;15.59;46.86;98217.25;4933569;28;20138;-72
2021/04/10 17:27:38;;;;;;;13.32;3.03;;;;;;;15.58;47.18;98217.34;4933345;29;20028;-70
2021/04/10 17:30:05;;;;;;;19.15;4.82;;;;;;;15.42;47.40;98220.69;4932209;29;20428;-69
2021/04/10 17:32:30;;;;;;;16.58;5.40;;;;;;;15.39;47.84;98225.19;4933047;29;20111;-69
2021/04/10 17:34:56;;;;;;;5.57;3.53;;;;;;;15.32;48.22;98219.38;4932348;28;20089;-69
2021/04/10 17:37:21;;;;;;;11.55;2.80;;;;;;;15.24;48.22;98218.06;4933142;29;20028;-69
2021/04/10 17:39:47;;;;;;;16.67;3.97;;;;;;;15.24;48.00;98223.28;4933203;29;20024;-69
2021/04/10 17:42:12;;;;;;;20.42;4.20;;;;;;;15.14;48.34;98221.09;4933016;28;20031;-71
2021/04/10 17:44:38;;;;;;;22.73;3.33;;;;;;;15.10;48.54;98219.53;4932358;29;20024;-71
2021/04/10 17:47:03;;;;;;;14.90;3.15;;;;;;;15.10;48.48;98218.69;4933007;28;20031;-71
2021/04/10 17:49:28;;;;;;;5.75;2.30;;;;;;;14.98;48.74;98220.06;4933215;29;20027;-71
2021/04/10 17:51:54;;;;;;;12.25;2.80;;;;;;;14.96;48.61;98216.69;4932923;28;20032;-69
2021/04/10 17:54:19;;;;;;;7.05;2.90;;;;;;;14.92;49.04;98220.34;4932355;28;20090;-71
2021/04/10 17:56:45;;;;;;;6.15;2.45;;;;;;;14.89;49.15;98215.25;4933052;28;20055;-71
2021/04/10 17:59:10;;;;;;;7.80;2.40;;;;;;;14.78;50.09;98215.75;4932494;29;20028;-71
2021/04/10 18:01:35;;;;;;;5.97;2.60;;;;;;;14.76;49.77;98214.13;4932966;28;20024;-71
2021/04/10 18:04:03;;;;;;;6.57;2.70;;;;;;;14.70;50.26;98206.56;4934320;28;20071;-71
2021/04/10 18:06:31;;;;;;;5.65;2.80;;;;;;;14.71;50.45;98210.88;4936317;28;20032;-71
2021/04/10 18:08:57;;;;;;;12.20;2.92;;;;;;;14.65;49.99;98207.63;4936310;28;20400;-68
2021/04/10 18:11:23;;;;;;;6.00;2.67;;;;;;;14.60;50.96;98209.59;4936121;29;20027;-69
2021/04/10 18:13:49;;;;;;;4.60;2.70;;;;;;;14.57;50.84;98214.94;4936129;29;20051;-69
2021/04/10 18:16:14;;;;;;;6.18;2.80;;;;;;;14.51;50.91;98199.56;4935210;28;20031;-68
2021/04/10 18:18:40;;;;;;;5.80;2.90;;;;;;;14.46;51.97;98211.06;4936186;28;20036;-69
2021/04/10 18:21:06;;;;;;;9.48;3.47;;;;;;;14.35;51.87;98211.50;4936098;29;20039;-69
2021/04/10 18:23:35;;;;;;;7.82;3.10;;;;;;;14.29;52.59;98219.59;4935185;29;20038;-69
2021/04/10 18:26:04;;;;;;;11.75;5.00;;;;;;;14.32;52.66;98211.66;4935864;29;20067;-69
2021/04/10 18:28:30;;;;;;;8.77;4.60;;;;;;;14.27;52.52;98221.41;4935986;28;20051;-69
2021/04/10 18:30:56;;;;;;;8.77;3.92;;;;;;;14.17;53.17;98220.09;4934901;29;20070;-69
2021/04/10 18:33:23;;;;;;;7.28;3.15;;;;;;;14.14;53.08;98216.72;4935791;29;20042;-69
2021/04/10 18:35:50;;;;;;;4.72;3.13;;;;;;;14.11;53.28;98222.03;4935971;29;20087;-69
2021/04/10 18:38:17;;;;;;;7.97;3.20;;;;;;;14.07;53.17;98220.50;4935835;29;20749;-69
2021/04/10 18:40:42;;;;;;;6.55;3.13;;;;;;;14.06;53.08;98228.34;4935736;29;20140;-69